createdAt,value
2018-03-02T00:00:11.869Z,1010.27
2018-03-02T00:01:11.824Z,1010.22
2018-03-02T00:02:11.790Z,1010.24
2018-03-02T00:03:11.743Z,1010.24
2018-03-02T00:04:11.706Z,1010.23
2018-03-02T00:05:11.668Z,1010.21
2018-03-02T00:06:11.631Z,1010.10
2018-03-02T00:07:11.590Z,1010.21
2018-03-02T00:08:11.553Z,1010.20
2018-03-02T00:09:11.521Z,1010.08
2018-03-02T00:10:11.484Z,1010.21
2018-03-02T00:11:11.436Z,1010.13
2018-03-02T00:12:11.391Z,1010.07
2018-03-02T00:13:11.354Z,1010.10
2018-03-02T00:14:11.322Z,1009.97
2018-03-02T00:15:11.285Z,1010.10
2018-03-02T00:16:11.234Z,1010.10
2018-03-02T00:17:11.192Z,1010.07
2018-03-02T00:18:11.156Z,1010.14
2018-03-02T00:19:11.121Z,1010.13
2018-03-02T00:20:11.075Z,1010.10
2018-03-02T00:21:11.038Z,1010.16
2018-03-02T00:22:10.999Z,1010.08
2018-03-02T00:23:10.962Z,1010.06
2018-03-02T00:24:10.922Z,1010.11
2018-03-02T00:25:10.877Z,1010.08
2018-03-02T00:26:10.838Z,1010.08
2018-03-02T00:27:10.806Z,1010.04
2018-03-02T00:28:10.760Z,1010.06
2018-03-02T00:29:10.727Z,1010.03
2018-03-02T00:30:10.679Z,1009.94
2018-03-02T00:31:10.644Z,1010.01
2018-03-02T00:32:10.604Z,1010.03
2018-03-02T00:33:10.861Z,1010.01
2018-03-02T00:34:10.521Z,1010.03
2018-03-02T00:35:10.484Z,1010.01
2018-03-02T00:36:10.441Z,1010.02
2018-03-02T00:37:10.405Z,1010.00
2018-03-02T00:38:10.371Z,1009.99
2018-03-02T00:39:10.324Z,1009.98
2018-03-02T00:40:10.281Z,1009.97
2018-03-02T00:41:10.248Z,1009.95
2018-03-02T00:42:10.208Z,1009.94
2018-03-02T00:43:10.164Z,1009.90
2018-03-02T00:44:10.125Z,1009.90
2018-03-02T00:45:10.080Z,1009.93
2018-03-02T00:46:10.040Z,1009.94
2018-03-02T00:47:10.013Z,1009.86
2018-03-02T00:48:10.022Z,1009.89
2018-03-02T00:49:09.924Z,1009.88
2018-03-02T00:50:09.895Z,1009.88
2018-03-02T00:51:09.847Z,1009.88
2018-03-02T00:52:09.809Z,1009.85
2018-03-02T00:53:09.780Z,1009.80
2018-03-02T00:54:09.738Z,1009.77
2018-03-02T00:55:09.685Z,1009.77
2018-03-02T00:56:09.658Z,1009.76
2018-03-02T00:57:09.619Z,1009.73
2018-03-02T00:58:09.572Z,1009.75
2018-03-02T00:59:09.536Z,1009.75
2018-03-02T01:00:09.490Z,1009.78
2018-03-02T01:01:09.451Z,1009.75
2018-03-02T01:02:09.705Z,1009.81
2018-03-02T01:03:09.373Z,1009.70
2018-03-02T01:04:09.335Z,1009.69
2018-03-02T01:05:09.286Z,1009.73
2018-03-02T01:06:09.249Z,1009.69
2018-03-02T01:07:09.210Z,1009.74
2018-03-02T01:08:09.171Z,1009.69
2018-03-02T01:09:09.137Z,1009.65
2018-03-02T01:10:09.092Z,1009.73
2018-03-02T01:11:09.051Z,1009.70
2018-03-02T01:12:09.012Z,1009.68
2018-03-02T01:13:08.972Z,1009.60
2018-03-02T01:14:08.933Z,1009.61
2018-03-02T01:15:08.900Z,1009.54
2018-03-02T01:16:08.860Z,1009.51
2018-03-02T01:17:08.812Z,1009.53
2018-03-02T01:18:08.777Z,1009.51
2018-03-02T01:19:08.761Z,1009.50
2018-03-02T01:20:08.702Z,1009.51
2018-03-02T01:21:08.649Z,1009.49
2018-03-02T01:22:08.611Z,1009.55
2018-03-02T01:23:08.574Z,1009.46
2018-03-02T01:24:08.534Z,1009.47
2018-03-02T01:25:08.835Z,1009.43
2018-03-02T01:26:08.455Z,1009.43
2018-03-02T01:27:08.417Z,1009.40
2018-03-02T01:28:08.375Z,1009.42
2018-03-02T01:29:08.338Z,1009.37
2018-03-02T01:30:08.299Z,1009.35
2018-03-02T01:31:08.255Z,1009.34
2018-03-02T01:32:08.215Z,1009.35
2018-03-02T01:33:08.176Z,1009.28
2018-03-02T01:34:08.134Z,1009.27
2018-03-02T01:35:08.097Z,1009.26
2018-03-02T01:36:08.056Z,1009.21
2018-03-02T01:37:08.318Z,1009.20
2018-03-02T01:38:07.973Z,1009.14
2018-03-02T01:39:07.933Z,1009.19
2018-03-02T01:40:07.904Z,1009.19
2018-03-02T01:41:07.862Z,1009.12
2018-03-02T01:42:07.819Z,1009.13
2018-03-02T01:43:08.026Z,1009.12
2018-03-02T01:44:07.738Z,1009.13
2018-03-02T01:45:07.701Z,1009.17
2018-03-02T01:46:07.657Z,1009.15
2018-03-02T01:47:07.620Z,1009.09
2018-03-02T01:48:07.581Z,1009.07
2018-03-02T01:49:07.535Z,1009.13
2018-03-02T01:50:07.496Z,1009.05
2018-03-02T01:51:07.452Z,1009.10
2018-03-02T01:52:07.413Z,1009.09
2018-03-02T01:53:07.382Z,1009.08
2018-03-02T01:54:07.337Z,1009.08
2018-03-02T01:55:07.313Z,1009.12
2018-03-02T01:56:07.267Z,1009.07
2018-03-02T01:57:07.212Z,1009.11
2018-03-02T01:58:07.173Z,1009.04
2018-03-02T01:59:07.136Z,1009.01
2018-03-02T02:00:07.599Z,1009.01
2018-03-02T02:01:07.057Z,1008.97
2018-03-02T02:02:07.017Z,1008.96
2018-03-02T02:03:06.971Z,1008.99
2018-03-02T02:04:06.928Z,1008.92
2018-03-02T02:05:06.940Z,1008.88
2018-03-02T02:06:07.103Z,1008.93
2018-03-02T02:07:06.813Z,1008.94
2018-03-02T02:08:06.776Z,1008.89
2018-03-02T02:09:06.737Z,1008.88
2018-03-02T02:10:06.694Z,1008.86
2018-03-02T02:11:06.654Z,1008.87
2018-03-02T02:12:06.615Z,1008.88
2018-03-02T02:13:06.571Z,1008.82
2018-03-02T02:14:06.534Z,1008.78
2018-03-02T02:15:06.495Z,1008.73
2018-03-02T02:16:06.453Z,1008.71
2018-03-02T02:17:06.413Z,1008.72
2018-03-02T02:18:06.366Z,1008.70
2018-03-02T02:19:06.333Z,1008.71
2018-03-02T02:20:06.302Z,1008.65
2018-03-02T02:21:06.261Z,1008.67
2018-03-02T02:22:06.214Z,1008.68
2018-03-02T02:23:06.181Z,1008.64
2018-03-02T02:24:06.431Z,1008.68
2018-03-02T02:25:06.097Z,1008.64
2018-03-02T02:26:06.052Z,1008.66
2018-03-02T02:27:06.011Z,1008.57
2018-03-02T02:28:05.974Z,1008.63
2018-03-02T02:29:05.926Z,1008.52
2018-03-02T02:30:05.893Z,1008.64
2018-03-02T02:31:05.857Z,1008.49
2018-03-02T02:32:05.820Z,1008.61
2018-03-02T02:33:05.768Z,1008.59
2018-03-02T02:34:05.736Z,1008.54
2018-03-02T02:35:05.688Z,1008.60
2018-03-02T02:36:05.650Z,1008.56
2018-03-02T02:37:05.613Z,1008.58
2018-03-02T02:38:05.568Z,1008.60
2018-03-02T02:39:05.523Z,1008.57
2018-03-02T02:40:05.484Z,1008.56
2018-03-02T02:41:05.700Z,1008.52
2018-03-02T02:42:05.413Z,1008.54
2018-03-02T02:43:05.368Z,1008.54
2018-03-02T02:44:05.329Z,1008.47
2018-03-02T02:45:05.293Z,1008.49
2018-03-02T02:46:05.247Z,1008.44
2018-03-02T02:47:05.453Z,1008.51
2018-03-02T02:48:05.165Z,1008.44
2018-03-02T02:49:05.117Z,1008.38
2018-03-02T02:50:05.083Z,1008.42
2018-03-02T02:51:05.048Z,1008.36
2018-03-02T02:52:05.005Z,1008.33
2018-03-02T02:53:04.969Z,1008.32
2018-03-02T02:54:04.934Z,1008.33
2018-03-02T02:55:04.888Z,1008.33
2018-03-02T02:56:04.837Z,1008.31
2018-03-02T02:57:04.802Z,1008.31
2018-03-02T02:58:04.761Z,1008.35
2018-03-02T02:59:05.026Z,1008.32
2018-03-02T03:00:04.681Z,1008.30
2018-03-02T03:01:04.638Z,1008.37
2018-03-02T03:02:04.600Z,1008.42
2018-03-02T03:03:04.567Z,1008.45
2018-03-02T03:04:04.518Z,1008.40
2018-03-02T03:05:04.780Z,1008.39
2018-03-02T03:06:04.439Z,1008.42
2018-03-02T03:07:04.401Z,1008.42
2018-03-02T03:08:04.354Z,1008.44
2018-03-02T03:09:04.317Z,1008.41
2018-03-02T03:10:04.277Z,1008.43
2018-03-02T03:11:04.235Z,1008.44
2018-03-02T03:12:04.196Z,1008.37
2018-03-02T03:13:04.160Z,1008.36
2018-03-02T03:14:04.116Z,1008.40
2018-03-02T03:15:04.079Z,1008.39
2018-03-02T03:16:04.034Z,1008.40
2018-03-02T03:17:03.998Z,1008.34
2018-03-02T03:18:03.949Z,1008.26
2018-03-02T03:19:03.912Z,1008.33
2018-03-02T03:20:03.874Z,1008.34
2018-03-02T03:21:03.835Z,1008.32
2018-03-02T03:22:04.054Z,1008.35
2018-03-02T03:23:03.747Z,1008.25
2018-03-02T03:24:03.708Z,1008.33
2018-03-02T03:25:03.667Z,1008.34
2018-03-02T03:26:03.629Z,1008.35
2018-03-02T03:27:03.585Z,1008.39
2018-03-02T03:28:03.541Z,1008.32
2018-03-02T03:29:03.508Z,1008.36
2018-03-02T03:30:03.465Z,1008.33
2018-03-02T03:31:03.441Z,1008.30
2018-03-02T03:32:03.384Z,1008.22
2018-03-02T03:33:03.343Z,1008.26
2018-03-02T03:34:03.601Z,1008.27
2018-03-02T03:35:03.267Z,1008.26
2018-03-02T03:36:03.224Z,1008.25
2018-03-02T03:37:03.178Z,1008.23
2018-03-02T03:38:03.138Z,1008.29
2018-03-02T03:39:03.098Z,1008.27
2018-03-02T03:40:03.055Z,1008.23
2018-03-02T03:41:03.031Z,1008.19
2018-03-02T03:42:02.986Z,1008.20
2018-03-02T03:43:02.937Z,1008.20
2018-03-02T03:44:02.907Z,1008.16
2018-03-02T03:45:02.858Z,1008.23
2018-03-02T03:46:03.127Z,1008.18
2018-03-02T03:47:02.773Z,1008.22
2018-03-02T03:48:02.737Z,1008.22
2018-03-02T03:49:02.694Z,1008.23
2018-03-02T03:50:02.652Z,1008.22
2018-03-02T03:51:02.615Z,1008.23
2018-03-02T03:52:02.573Z,1008.17
2018-03-02T03:53:02.530Z,1008.19
2018-03-02T03:54:02.489Z,1008.17
2018-03-02T03:55:02.447Z,1008.13
2018-03-02T03:56:02.405Z,1008.15
2018-03-02T03:57:02.370Z,1008.18
2018-03-02T03:58:02.328Z,1008.15
2018-03-02T03:59:02.288Z,1008.15
2018-03-02T04:00:02.244Z,1008.05
2018-03-02T04:01:02.203Z,1008.11
2018-03-02T04:02:02.177Z,1008.06
2018-03-02T04:03:02.126Z,1008.08
2018-03-02T04:04:02.350Z,1008.12
2018-03-02T04:05:02.048Z,1008.07
2018-03-02T04:06:02.002Z,1008.01
2018-03-02T04:07:01.973Z,1008.06
2018-03-02T04:08:01.921Z,1008.03
2018-03-02T04:09:01.879Z,1008.03
2018-03-02T04:10:02.141Z,1008.02
2018-03-02T04:11:01.801Z,1008.01
2018-03-02T04:12:01.762Z,1008.04
2018-03-02T04:13:01.717Z,1008.08
2018-03-02T04:14:01.675Z,1008.04
2018-03-02T04:15:01.641Z,1008.03
2018-03-02T04:16:01.599Z,1007.97
2018-03-02T04:17:01.552Z,1008.05
2018-03-02T04:18:01.510Z,1008.01
2018-03-02T04:19:01.467Z,1008.04
2018-03-02T04:20:01.731Z,1008.02
2018-03-02T04:21:01.391Z,1007.99
2018-03-02T04:22:01.349Z,1007.95
2018-03-02T04:23:01.306Z,1007.97
2018-03-02T04:24:01.268Z,1007.96
2018-03-02T04:25:01.228Z,1007.98
2018-03-02T04:26:01.190Z,1007.96
2018-03-02T04:27:01.149Z,1007.90
2018-03-02T04:28:01.109Z,1007.90
2018-03-02T04:29:01.057Z,1007.94
2018-03-02T04:30:01.024Z,1007.88
2018-03-02T04:31:00.981Z,1008.01
2018-03-02T04:32:01.195Z,1007.90
2018-03-02T04:33:00.904Z,1007.91
2018-03-02T04:34:00.855Z,1007.89
2018-03-02T04:35:00.821Z,1007.84
2018-03-02T04:36:00.784Z,1007.81
2018-03-02T04:37:00.736Z,1007.84
2018-03-02T04:38:01.196Z,1007.86
2018-03-02T04:39:00.647Z,1007.81
2018-03-02T04:40:00.609Z,1007.77
2018-03-02T04:41:00.572Z,1007.77
2018-03-02T04:42:00.533Z,1007.80
2018-03-02T04:43:00.493Z,1007.73
2018-03-02T04:44:00.452Z,1007.69
2018-03-02T04:45:00.413Z,1007.79
2018-03-02T04:46:00.367Z,1007.72
2018-03-02T04:47:00.327Z,1007.77
2018-03-02T04:48:00.289Z,1007.75
2018-03-02T04:49:00.252Z,1007.72
2018-03-02T04:50:00.207Z,1007.65
2018-03-02T04:51:00.156Z,1007.59
2018-03-02T04:52:00.119Z,1007.63
2018-03-02T04:53:00.078Z,1007.53
2018-03-02T04:54:00.047Z,1007.61
2018-03-02T04:55:00.002Z,1007.61
2018-03-02T04:56:00.205Z,1007.56
2018-03-02T04:56:59.926Z,1007.51
2018-03-02T04:57:59.885Z,1007.49
2018-03-02T04:58:59.841Z,1007.53
2018-03-02T04:59:59.790Z,1007.46
2018-03-02T05:00:59.754Z,1007.50
2018-03-02T05:01:59.707Z,1007.41
2018-03-02T05:02:59.671Z,1007.46
2018-03-02T05:03:59.633Z,1007.43
2018-03-02T05:04:59.583Z,1007.42
2018-03-02T05:05:59.542Z,1007.42
2018-03-02T05:06:59.501Z,1007.43
2018-03-02T05:07:59.759Z,1007.42
2018-03-02T05:08:59.424Z,1007.33
2018-03-02T05:09:59.384Z,1007.37
2018-03-02T05:10:59.340Z,1007.42
2018-03-02T05:11:59.298Z,1007.43
2018-03-02T05:12:59.265Z,1007.42
2018-03-02T05:13:59.225Z,1007.37
2018-03-02T05:14:59.189Z,1007.33
2018-03-02T05:15:59.141Z,1007.28
2018-03-02T05:16:59.101Z,1007.33
2018-03-02T05:17:59.048Z,1007.39
2018-03-02T05:18:59.010Z,1007.34
2018-03-02T05:19:59.269Z,1007.38
2018-03-02T05:20:58.937Z,1007.36
2018-03-02T05:21:58.886Z,1007.34
2018-03-02T05:22:58.858Z,1007.32
2018-03-02T05:23:58.808Z,1007.25
2018-03-02T05:24:58.770Z,1007.35
2018-03-02T05:25:58.724Z,1007.35
2018-03-02T05:26:58.684Z,1007.29
2018-03-02T05:27:58.637Z,1007.36
2018-03-02T05:28:58.612Z,1007.31
2018-03-02T05:29:58.559Z,1007.31
2018-03-02T05:30:58.523Z,1007.25
2018-03-02T05:31:58.479Z,1007.28
2018-03-02T05:32:58.440Z,1007.26
2018-03-02T05:33:58.392Z,1007.26
2018-03-02T05:34:58.369Z,1007.20
2018-03-02T05:35:58.321Z,1007.28
2018-03-02T05:36:58.271Z,1007.31
2018-03-02T05:37:58.230Z,1007.27
2018-03-02T05:38:58.185Z,1007.21
2018-03-02T05:39:58.152Z,1007.24
2018-03-02T05:40:58.110Z,1007.28
2018-03-02T05:41:58.073Z,1007.31
2018-03-02T05:42:58.022Z,1007.26
2018-03-02T05:43:57.986Z,1007.21
2018-03-02T05:44:57.949Z,1007.19
2018-03-02T05:45:57.909Z,1007.12
2018-03-02T05:46:57.864Z,1007.17
2018-03-02T05:47:58.121Z,1007.21
2018-03-02T05:48:57.773Z,1007.17
2018-03-02T05:49:57.743Z,1007.13
2018-03-02T05:50:57.696Z,1007.06
2018-03-02T05:51:57.667Z,1007.16
2018-03-02T05:52:57.612Z,1007.17
2018-03-02T05:53:57.870Z,1007.14
2018-03-02T05:54:57.535Z,1007.19
2018-03-02T05:55:57.493Z,1007.13
2018-03-02T05:56:57.452Z,1007.18
2018-03-02T05:57:57.412Z,1007.19
2018-03-02T05:58:57.372Z,1007.21
2018-03-02T05:59:57.326Z,1007.17
2018-03-02T06:00:57.292Z,1007.20
2018-03-02T06:01:57.243Z,1007.14
2018-03-02T06:02:57.206Z,1007.17
2018-03-02T06:03:57.163Z,1007.12
2018-03-02T06:04:57.117Z,1007.12
2018-03-02T06:05:57.080Z,1007.15
2018-03-02T06:06:57.052Z,1007.16
2018-03-02T06:07:56.995Z,1007.09
2018-03-02T06:08:56.963Z,1007.19
2018-03-02T06:09:56.919Z,1007.14
2018-03-02T06:10:56.877Z,1007.17
2018-03-02T06:11:56.839Z,1007.16
2018-03-02T06:12:56.793Z,1007.18
2018-03-02T06:13:56.750Z,1007.21
2018-03-02T06:14:56.719Z,1007.07
2018-03-02T06:15:56.678Z,1007.05
2018-03-02T06:16:56.626Z,1007.13
2018-03-02T06:17:56.588Z,1007.10
2018-03-02T06:18:56.543Z,1007.08
2018-03-02T06:19:56.500Z,1007.08
2018-03-02T06:20:56.463Z,1007.08
2018-03-02T06:21:56.427Z,1007.06
2018-03-02T06:22:56.379Z,1007.16
2018-03-02T06:23:56.341Z,1007.17
2018-03-02T06:24:56.305Z,1007.21
2018-03-02T06:25:56.259Z,1007.12
2018-03-02T06:26:56.219Z,1007.09
2018-03-02T06:27:56.179Z,1007.10
2018-03-02T06:28:56.134Z,1007.16
2018-03-02T06:29:56.391Z,1007.16
2018-03-02T06:30:56.052Z,1007.18
2018-03-02T06:31:56.017Z,1007.20
2018-03-02T06:32:55.973Z,1007.20
2018-03-02T06:33:55.937Z,1007.25
2018-03-02T06:34:55.888Z,1007.21
2018-03-02T06:35:55.857Z,1007.26
2018-03-02T06:36:55.809Z,1007.15
2018-03-02T06:37:55.777Z,1007.24
2018-03-02T06:38:55.730Z,1007.12
2018-03-02T06:39:55.691Z,1007.18
2018-03-02T06:40:55.649Z,1007.23
2018-03-02T06:41:55.610Z,1007.23
2018-03-02T06:42:55.569Z,1007.14
2018-03-02T06:43:55.536Z,1007.18
2018-03-02T06:44:55.485Z,1007.20
2018-03-02T06:45:55.445Z,1007.18
2018-03-02T06:46:55.409Z,1007.27
2018-03-02T06:47:55.367Z,1007.16
2018-03-02T06:48:55.324Z,1007.21
2018-03-02T06:49:55.286Z,1007.19
2018-03-02T06:50:55.242Z,1007.17
2018-03-02T06:51:55.203Z,1007.18
2018-03-02T06:52:55.172Z,1007.17
2018-03-02T06:53:55.131Z,1007.07
2018-03-02T06:54:55.084Z,1007.07
2018-03-02T06:55:55.049Z,1007.09
2018-03-02T06:56:55.013Z,1007.13
2018-03-02T06:57:54.970Z,1007.02
2018-03-02T06:58:54.932Z,1007.07
2018-03-02T06:59:54.896Z,1006.94
2018-03-02T07:00:54.853Z,1007.04
2018-03-02T07:01:54.817Z,1007.09
2018-03-02T07:02:54.781Z,1007.08
2018-03-02T07:03:54.745Z,1007.03
2018-03-02T07:04:54.704Z,1007.03
2018-03-02T07:05:54.655Z,1007.08
2018-03-02T07:06:54.624Z,1007.13
2018-03-02T07:07:54.579Z,1007.07
2018-03-02T07:08:54.546Z,1007.15
2018-03-02T07:09:54.506Z,1007.21
2018-03-02T07:10:54.472Z,1007.22
2018-03-02T07:11:54.426Z,1007.20
2018-03-02T07:12:54.398Z,1007.28
2018-03-02T07:13:54.353Z,1007.24
2018-03-02T07:14:54.314Z,1007.30
2018-03-02T07:15:54.277Z,1007.38
2018-03-02T07:16:54.244Z,1007.34
2018-03-02T07:17:54.195Z,1007.45
2018-03-02T07:18:54.170Z,1007.43
2018-03-02T07:19:54.130Z,1007.45
2018-03-02T07:20:54.085Z,1007.47
2018-03-02T07:21:54.049Z,1007.51
2018-03-02T07:22:54.086Z,1007.51
2018-03-02T07:23:53.975Z,1007.57
2018-03-02T07:24:53.935Z,1007.60
2018-03-02T07:25:53.897Z,1007.57
2018-03-02T07:26:53.861Z,1007.67
2018-03-02T07:27:53.827Z,1007.66
2018-03-02T07:28:53.792Z,1007.61
2018-03-02T07:29:53.755Z,1007.70
2018-03-02T07:30:53.713Z,1007.65
2018-03-02T07:31:53.673Z,1007.63
2018-03-02T07:32:53.631Z,1007.65
2018-03-02T07:33:53.596Z,1007.72
2018-03-02T07:34:53.572Z,1007.80
2018-03-02T07:35:53.528Z,1007.76
2018-03-02T07:36:53.493Z,1007.75
2018-03-02T07:37:53.458Z,1007.81
2018-03-02T07:38:53.420Z,1007.83
2018-03-02T07:39:53.399Z,1007.79
2018-03-02T07:40:53.345Z,1007.81
2018-03-02T07:41:53.316Z,1007.69
2018-03-02T07:42:53.276Z,1007.65
2018-03-02T07:43:53.237Z,1007.61
2018-03-02T07:44:53.214Z,1007.64
2018-03-02T07:45:53.171Z,1007.59
2018-03-02T07:46:53.134Z,1007.52
2018-03-02T07:47:53.106Z,1007.55
2018-03-02T07:48:53.061Z,1007.46
2018-03-02T07:49:53.026Z,1007.51
2018-03-02T07:50:52.995Z,1007.54
2018-03-02T07:51:52.962Z,1007.54
2018-03-02T07:52:52.919Z,1007.52
2018-03-02T07:53:52.886Z,1007.56
2018-03-02T07:54:52.853Z,1007.55
2018-03-02T07:55:52.818Z,1007.46
2018-03-02T07:56:52.787Z,1007.51
2018-03-02T07:57:52.761Z,1007.48
2018-03-02T07:58:52.722Z,1007.53
2018-03-02T07:59:52.691Z,1007.47
2018-03-02T08:00:52.650Z,1007.32
2018-03-02T08:01:52.621Z,1007.33
2018-03-02T08:02:52.582Z,1007.44
2018-03-02T08:03:52.848Z,1007.38
2018-03-02T08:04:52.506Z,1007.33
2018-03-02T08:05:52.477Z,1007.44
2018-03-02T08:06:52.447Z,1007.55
2018-03-02T08:07:52.413Z,1007.55
2018-03-02T08:08:52.377Z,1007.58
2018-03-02T08:09:52.348Z,1007.48
2018-03-02T08:10:52.311Z,1007.53
2018-03-02T08:11:52.274Z,1007.68
2018-03-02T08:12:52.253Z,1007.60
2018-03-02T08:13:52.210Z,1007.64
2018-03-02T08:14:52.183Z,1007.68
2018-03-02T08:15:52.153Z,1007.74
2018-03-02T08:16:52.116Z,1007.77
2018-03-02T08:17:52.083Z,1007.78
2018-03-02T08:18:52.049Z,1007.84
2018-03-02T08:19:52.008Z,1007.98
2018-03-02T08:20:51.998Z,1008.07
2018-03-02T08:21:51.953Z,1008.00
2018-03-02T08:22:51.936Z,1008.10
2018-03-02T08:23:51.884Z,1008.09
2018-03-02T08:24:51.850Z,1008.09
2018-03-02T08:25:51.816Z,1008.08
2018-03-02T08:26:51.786Z,1008.16
2018-03-02T08:27:51.752Z,1008.12
2018-03-02T08:28:51.712Z,1008.13
2018-03-02T08:29:51.683Z,1008.11
2018-03-02T08:30:51.655Z,1008.16
2018-03-02T08:31:51.624Z,1008.05
2018-03-02T08:32:51.595Z,1008.00
2018-03-02T08:33:51.559Z,1007.91
2018-03-02T08:34:51.524Z,1007.95
2018-03-02T08:35:51.490Z,1007.87
2018-03-02T08:36:51.462Z,1007.78
2018-03-02T08:37:51.439Z,1007.81
2018-03-02T08:38:51.398Z,1007.82
2018-03-02T08:39:51.362Z,1007.78
2018-03-02T08:40:51.335Z,1007.78
2018-03-02T08:41:51.310Z,1007.63
2018-03-02T08:42:51.284Z,1007.54
2018-03-02T08:43:51.246Z,1007.42
2018-03-02T08:44:51.456Z,1007.14
2018-03-02T08:45:51.175Z,1007.12
2018-03-02T08:46:51.186Z,1007.13
2018-03-02T08:47:51.117Z,1007.02
2018-03-02T08:48:51.082Z,1007.02
2018-03-02T08:49:51.054Z,1006.93
2018-03-02T08:50:51.020Z,1006.97
2018-03-02T08:51:50.993Z,1006.95
2018-03-02T08:52:50.963Z,1006.87
2018-03-02T08:53:50.958Z,1006.94
2018-03-02T08:54:50.901Z,1006.89
2018-03-02T08:55:50.869Z,1006.92
2018-03-02T08:56:50.855Z,1006.83
2018-03-02T08:57:50.828Z,1006.75
2018-03-02T08:58:50.778Z,1006.70
2018-03-02T08:59:50.777Z,1006.63
2018-03-02T09:00:50.715Z,1006.62
2018-03-02T09:01:50.688Z,1006.66
2018-03-02T09:02:50.665Z,1006.65
2018-03-02T09:03:50.632Z,1006.63
2018-03-02T09:04:50.594Z,1006.56
2018-03-02T09:05:50.568Z,1006.58
2018-03-02T09:06:50.544Z,1006.51
2018-03-02T09:07:50.509Z,1006.53
2018-03-02T09:08:50.484Z,1006.49
2018-03-02T09:09:50.451Z,1006.53
2018-03-02T09:10:50.420Z,1006.42
2018-03-02T09:11:50.417Z,1006.46
2018-03-02T09:12:50.356Z,1006.41
2018-03-02T09:13:50.333Z,1006.36
2018-03-02T09:14:50.553Z,1006.32
2018-03-02T09:15:50.274Z,1006.34
2018-03-02T09:16:50.235Z,1006.23
2018-03-02T09:17:50.213Z,1006.30
2018-03-02T09:18:50.188Z,1006.24
2018-03-02T09:19:50.153Z,1006.21
2018-03-02T09:20:50.114Z,1006.20
2018-03-02T09:21:50.093Z,1006.19
2018-03-02T09:22:50.057Z,1006.23
2018-03-02T09:23:50.037Z,1006.19
2018-03-02T09:24:50.005Z,1006.16
2018-03-02T09:25:49.975Z,1006.22
2018-03-02T09:26:49.938Z,1006.22
2018-03-02T09:27:49.905Z,1006.17
2018-03-02T09:28:49.886Z,1006.18
2018-03-02T09:29:49.854Z,1006.13
2018-03-02T09:30:49.825Z,1006.08
2018-03-02T09:31:49.794Z,1006.07
2018-03-02T09:32:49.759Z,1006.04
2018-03-02T09:33:49.733Z,1005.99
2018-03-02T09:34:49.707Z,1006.01
2018-03-02T09:35:49.674Z,1005.95
2018-03-02T09:36:49.643Z,1005.96
2018-03-02T09:37:49.614Z,1005.97
2018-03-02T09:38:49.582Z,1005.97
2018-03-02T09:39:49.564Z,1005.88
2018-03-02T09:40:49.528Z,1005.82
2018-03-02T09:41:49.499Z,1005.82
2018-03-02T09:42:49.486Z,1005.91
2018-03-02T09:43:49.436Z,1005.88
2018-03-02T09:44:49.666Z,1005.87
2018-03-02T09:45:49.388Z,1005.91
2018-03-02T09:46:49.355Z,1005.93
2018-03-02T09:47:49.321Z,1005.93
2018-03-02T09:48:49.295Z,1005.91
2018-03-02T09:49:49.263Z,1005.90
2018-03-02T09:50:49.236Z,1005.87
2018-03-02T09:51:49.210Z,1005.90
2018-03-02T09:52:49.179Z,1005.81
2018-03-02T09:53:49.144Z,1005.84
2018-03-02T09:54:49.122Z,1005.82
2018-03-02T09:55:49.105Z,1005.76
2018-03-02T09:56:49.063Z,1005.76
2018-03-02T09:57:49.038Z,1005.71
2018-03-02T09:58:49.038Z,1005.67
2018-03-02T09:59:48.978Z,1005.58
2018-03-02T10:00:48.948Z,1005.62
2018-03-02T10:01:48.917Z,1005.59
2018-03-02T10:02:49.196Z,1005.54
2018-03-02T10:03:48.860Z,1005.57
2018-03-02T10:04:48.830Z,1005.56
2018-03-02T10:05:48.799Z,1005.49
2018-03-02T10:06:48.786Z,1005.47
2018-03-02T10:07:48.751Z,1005.45
2018-03-02T10:08:48.719Z,1005.45
2018-03-02T10:09:48.685Z,1005.45
2018-03-02T10:10:48.658Z,1005.33
2018-03-02T10:11:48.653Z,1005.37
2018-03-02T10:12:48.603Z,1005.37
2018-03-02T10:13:48.576Z,1005.39
2018-03-02T10:14:48.569Z,1005.41
2018-03-02T10:15:48.524Z,1005.32
2018-03-02T10:16:48.487Z,1005.32
2018-03-02T10:17:48.463Z,1005.38
2018-03-02T10:18:48.441Z,1005.34
2018-03-02T10:19:48.402Z,1005.32
2018-03-02T10:20:48.376Z,1005.34
2018-03-02T10:21:48.360Z,1005.28
2018-03-02T10:22:48.325Z,1005.17
2018-03-02T10:23:48.282Z,1005.33
2018-03-02T10:24:48.270Z,1005.30
2018-03-02T10:25:48.230Z,1005.30
2018-03-02T10:26:48.205Z,1005.20
2018-03-02T10:27:48.175Z,1005.27
2018-03-02T10:28:48.146Z,1005.21
2018-03-02T10:29:48.116Z,1005.27
2018-03-02T10:30:48.092Z,1005.21
2018-03-02T10:31:48.072Z,1005.19
2018-03-02T10:32:48.027Z,1005.12
2018-03-02T10:33:48.003Z,1005.18
2018-03-02T10:34:47.992Z,1005.14
2018-03-02T10:35:47.948Z,1005.13
2018-03-02T10:36:48.168Z,1005.19
2018-03-02T10:37:48.003Z,1005.05
2018-03-02T10:38:47.859Z,1005.07
2018-03-02T10:39:47.846Z,1005.04
2018-03-02T10:40:47.810Z,1005.11
2018-03-02T10:41:47.773Z,1004.97
2018-03-02T10:42:47.748Z,1004.96
2018-03-02T10:43:47.715Z,1004.93
2018-03-02T10:44:47.695Z,1004.93
2018-03-02T10:45:47.661Z,1005.01
2018-03-02T10:46:47.630Z,1004.95
2018-03-02T10:47:47.606Z,1005.07
2018-03-02T10:48:47.573Z,1005.07
2018-03-02T10:49:47.795Z,1005.12
2018-03-02T10:50:47.511Z,1005.10
2018-03-02T10:51:47.491Z,1005.12
2018-03-02T10:52:47.460Z,1005.05
2018-03-02T10:53:47.434Z,1005.13
2018-03-02T10:54:47.410Z,1005.12
2018-03-02T10:55:47.376Z,1005.11
2018-03-02T10:56:47.344Z,1005.10
2018-03-02T10:57:47.320Z,1005.13
2018-03-02T10:58:47.290Z,1005.11
2018-03-02T10:59:47.264Z,1005.16
2018-03-02T11:00:47.234Z,1005.27
2018-03-02T11:01:47.206Z,1005.36
2018-03-02T11:02:47.190Z,1005.41
2018-03-02T11:03:47.155Z,1005.54
2018-03-02T11:04:47.118Z,1005.49
2018-03-02T11:05:47.111Z,1005.48
2018-03-02T11:06:47.064Z,1005.51
2018-03-02T11:07:47.034Z,1005.46
2018-03-02T11:08:47.017Z,1005.49
2018-03-02T11:09:46.983Z,1005.47
2018-03-02T11:10:46.972Z,1005.50
2018-03-02T11:11:46.925Z,1005.64
2018-03-02T11:12:46.906Z,1005.91
2018-03-02T11:13:46.886Z,1005.96
2018-03-02T11:14:46.846Z,1006.02
2018-03-02T11:15:46.831Z,1006.01
2018-03-02T11:16:46.787Z,1006.05
2018-03-02T11:17:46.766Z,1006.15
2018-03-02T11:18:46.739Z,1006.26
2018-03-02T11:19:46.721Z,1006.41
2018-03-02T11:20:46.686Z,1006.70
2018-03-02T11:21:46.659Z,1006.47
2018-03-02T11:22:46.630Z,1006.19
2018-03-02T11:23:46.604Z,1006.23
2018-03-02T11:24:46.583Z,1006.14
2018-03-02T11:25:46.806Z,1006.16
2018-03-02T11:26:46.528Z,1006.17
2018-03-02T11:27:46.500Z,1006.10
2018-03-02T11:28:46.478Z,1006.02
2018-03-02T11:29:46.461Z,1006.09
2018-03-02T11:30:46.422Z,1005.86
2018-03-02T11:31:46.405Z,1005.86
2018-03-02T11:32:46.365Z,1005.88
2018-03-02T11:33:46.344Z,1005.88
2018-03-02T11:34:46.314Z,1005.82
2018-03-02T11:35:46.293Z,1005.84
2018-03-02T11:36:46.281Z,1005.75
2018-03-02T11:37:46.229Z,1005.77
2018-03-02T11:38:46.210Z,1005.69
2018-03-02T11:39:46.175Z,1005.68
2018-03-02T11:40:46.157Z,1005.68
2018-03-02T11:41:46.128Z,1005.47
2018-03-02T11:42:46.098Z,1005.60
2018-03-02T11:43:46.085Z,1005.56
2018-03-02T11:44:46.049Z,1005.54
2018-03-02T11:45:46.029Z,1005.54
2018-03-02T11:46:46.001Z,1005.61
2018-03-02T11:47:45.969Z,1005.55
2018-03-02T11:48:45.941Z,1005.58
2018-03-02T11:49:45.914Z,1005.61
2018-03-02T11:50:45.884Z,1005.60
2018-03-02T11:51:45.865Z,1005.59
2018-03-02T11:52:45.883Z,1005.56
2018-03-02T11:53:45.806Z,1005.55
2018-03-02T11:54:46.029Z,1005.53
2018-03-02T11:55:45.750Z,1005.58
2018-03-02T11:56:45.724Z,1005.64
2018-03-02T11:57:45.700Z,1005.72
2018-03-02T11:58:45.673Z,1005.62
2018-03-02T11:59:45.645Z,1005.59
2018-03-02T12:00:45.628Z,1005.53
2018-03-02T12:01:45.594Z,1005.39
2018-03-02T12:02:45.572Z,1005.39
2018-03-02T12:03:45.544Z,1005.27
2018-03-02T12:04:45.515Z,1005.36